Airfield :
LOGIN :

Register | Disclaimer

   EN    FR    IT 

 










Legend :    VFR   Marginal VFR   IFR   Intensive IFR   Very Intensive IFR
Visi :
Ceiling :
>= 8 km
>= 3000ft
5 to 8 km
1000 to 3000 ft
1500m to 5 km
500 to 1000 ft
800 to 1500m
200 to 500 ft
< 800m
< 200 ft
Symbols :   Thunderstorms  Fog  Heavy snow  Heavy precipitations  Wind > 20 kt
SIGMETs :     Misc.  Thunderstorms  Icing  Turbulence  Mountain Waves  Volcanic Ashes







- Airport Elevation : 220 ft
- IATA code : CWL
- Download approach charts


EGFF - Cardiff Rhoose

CURRENT METAR :
  • 231820Z AUTO 04008KT 9999 OVC042 10/04 Q1032

EXPIRED METARs :
  • 231750Z AUTO 05007KT 9999 BKN046 10/04 Q1032
  • 231720Z AUTO 06008KT 9999 SCT044 11/04 Q1032
  • 231650Z AUTO 07010KT 9999 BKN042 11/05 Q1032
  • 231620Z AUTO 07010KT 9999 BKN042 11/05 Q1032
  • 231550Z AUTO 06010KT 9999 NCD 11/05 Q1032

TAF TAF EGFF
Valid from the 23 at 18:00 until the 24 at 18:00 UTC


231652Z 2318/2418 06010KT 9999 SCT035
BECMG 2318/2321 VRB04KT
TEMPO 2322/2409 8000
PROB30
TEMPO 2322/2406 RA BKN014
BECMG 2409/2412 31010KT
ATIS : +44 1446 729 319
No reported NOTAMs for that airfield.



MET'MAP, your aeronautical weather chart ! - Copyright ORBIFLY December 2007 - Disclaimer

ORBIFLY MET'MAP TEAM :

Programming & Development : Alexandra Zaïnal
Concept & Development : Baudouin d'Aumeries
Co-Development & Prog : Marc-Olivier Méhu
Technical & hardware support : Manuel Goepfert

Contact : metmap@orbifly.com




SOURCES & CREDITS :

   NOAA